Flight Track Log - Related Links

Times and Time Zones

All times are in EDT time to prevent confusion due to time zone crossing. See the SWA1046 flight status page for this flight to view local times or setup timezone preferences in your user account.

Time Position Orientation Groundspeed Altitude Reporting Facility
EDT Latitude Longitude Course Direction KTS MPH feet Rate Location/Type
Fri 05:57:56 PM 35.4289 -97.6275 360° North 174 200 2,800  Level Fort Worth Center
Fri 05:59:46 PM 35.4722 -97.4914 69° East 258 297 7,600 2,895 Climbing Kansas City Center
Fri 06:00:48 PM 35.4894 -97.3878 78° East 284 327 11,100 3,072 Climbing Kansas City Center
Fri 06:01:51 PM 35.5147 -97.2772 74° East 315 362 14,000 2,688 Climbing Kansas City Center
Fri 06:02:53 PM 35.5631 -97.1733 60° Northeast 341 392 16,700 2,613 Climbing Kansas City Center
Fri 06:03:55 PM 35.6144 -97.0633 60° Northeast 363 418 19,400 2,613 Climbing Kansas City Center
Fri 06:04:57 PM 35.6683 -96.9472 60° Northeast 384 442 22,100 2,468 Climbing Kansas City Center
Fri 06:05:59 PM 35.7239 -96.8261 61° Northeast 397 457 24,500 2,274 Climbing Kansas City Center
Fri 06:07:01 PM 35.7931 -96.6758 60° Northeast 412 474 26,800 1,887 Climbing Kansas City Center
Fri 06:08:03 PM 35.8533 -96.5439 61° Northeast 427 491 28,400 1,597 Climbing Kansas City Center
Fri 06:09:05 PM 35.9158 -96.4075 60° Northeast 443 510 30,100 1,597 Climbing Kansas City Center
Fri 06:10:07 PM 35.9803 -96.2708 60° Northeast 453 521 31,700 1,597 Climbing Kansas City Center
Fri 06:11:09 PM 36.0439 -96.1314 61° Northeast 460 529 33,400 1,548 Climbing Kansas City Center
Fri 06:12:11 PM 36.1056 -95.9931 61° Northeast 461 531 34,900 1,355 Climbing Kansas City Center
Fri 06:13:13 PM 36.1800 -95.8256 61° Northeast 463 533 36,200 1,065 Climbing Kansas City Center
Fri 06:14:15 PM 36.2447 -95.6872 60° Northeast 468 539 37,100 1,065 Climbing Kansas City Center
Fri 06:15:17 PM 36.3119 -95.5508 59° Northeast 467 537 38,400 919 Climbing Kansas City Center
Fri 06:16:19 PM 36.3769 -95.4142 59° Northeast 464 534 39,000 290 Climbing Kansas City Center
Fri 06:17:21 PM 36.4433 -95.2753 59° Northeast 465 535 39,000  Level Kansas City Center
Fri 06:18:23 PM 36.5106 -95.1367 59° Northeast 468 539 39,000  Level Kansas City Center
Fri 06:19:25 PM 36.5864 -94.9775 59° Northeast 470 541 39,000  Level Kansas City Center
Fri 06:20:27 PM 36.6517 -94.8394 59° Northeast 468 539 39,000  Level Kansas City Center
Fri 06:21:29 PM 36.7181 -94.6997 59° Northeast 467 537 39,000  Level Kansas City Center
Fri 06:22:31 PM 36.7839 -94.5600 60° Northeast 467 537 39,000  Level Kansas City Center
Fri 06:23:33 PM 36.8714 -94.4008 55° Northeast 465 535 39,000  Level Kansas City Center
Fri 06:24:35 PM 36.9753 -94.3044 37° Northeast 465 535 39,000  Level Kansas City Center
Fri 06:25:37 PM 37.0769 -94.2058 38° Northeast 462 532 39,000  Level Kansas City Center
Fri 06:26:39 PM 37.1783 -94.1056 38° Northeast 463 533 39,000  Level Kansas City Center
Fri 06:27:41 PM 37.2844 -94.0011 38° Northeast 470 541 39,000  Level Kansas City Center
Fri 06:28:43 PM 37.3872 -93.8986 38° Northeast 470 541 39,000  Level Kansas City Center
Fri 06:29:45 PM 37.4908 -93.7961 38° Northeast 471 542 39,000  Level Kansas City Center
Fri 06:30:47 PM 37.5936 -93.6928 39° Northeast 471 542 39,000  Level Kansas City Center
Fri 06:31:49 PM 37.7181 -93.5697 38° Northeast 471 542 39,000  Level Kansas City Center
Fri 06:32:51 PM 37.8200 -93.4667 39° Northeast 468 539 39,000  Level Kansas City Center
Fri 06:33:54 PM 37.9217 -93.3633 39° Northeast 466 536 39,000  Level Kansas City Center
Fri 06:34:56 PM 38.0233 -93.2608 38° Northeast 463 533 39,000  Level Kansas City Center
Fri 06:35:58 PM 38.1250 -93.1567 39° Northeast 464 534 39,000  Level Kansas City Center
Fri 06:37:00 PM 38.2283 -93.0525 38° Northeast 468 539 39,000  Level Kansas City Center
Fri 06:38:02 PM 38.3297 -92.9467 39° Northeast 467 537 39,000  Level Kansas City Center
Fri 06:39:04 PM 38.4322 -92.8417 39° Northeast 467 537 39,000  Level Kansas City Center
Fri 06:40:06 PM 38.5550 -92.7133 39° Northeast 469 540 39,000  Level Kansas City Center
Fri 06:41:08 PM 38.6581 -92.6089 38° Northeast 469 540 39,000  Level Kansas City Center
Fri 06:42:10 PM 38.7597 -92.5008 40° Northeast 470 541 39,000  Level Kansas City Center
Fri 06:43:12 PM 38.8606 -92.3953 39° Northeast 466 536 39,000  Level Kansas City Center
Fri 06:44:14 PM 38.9597 -92.2892 40° Northeast 461 531 39,000  Level Kansas City Center
Fri 06:45:16 PM 39.0586 -92.1858 39° Northeast 458 527 39,000  Level Kansas City Center
Fri 06:46:18 PM 39.1497 -92.0717 44° Northeast 455 524 39,000  Level Kansas City Center
Fri 06:47:20 PM 39.2239 -91.9350 55° Northeast 459 528 39,000  Level Kansas City Center
Fri 06:48:22 PM 39.3128 -91.7817 53° Northeast 459 528 39,000 -339 Level Kansas City Center
Fri 06:49:24 PM 39.3867 -91.6522 54° Northeast 460 529 38,300 -774 Descending Kansas City Center
Fri 06:50:26 PM 39.4619 -91.5211 53° Northeast 457 526 37,400 -919 Descending Kansas City Center
Fri 06:51:28 PM 39.5331 -91.3944 54° Northeast 450 518 36,400 -919 Descending Kansas City Center
Fri 06:52:30 PM 39.6008 -91.2717 54° Northeast 434 499 35,500 -1,016 Descending Kansas City Center
Fri 06:53:32 PM 39.6850 -91.1239 53° Northeast 427 491 34,300 -1,065 Descending Kansas City Center
Fri 06:54:34 PM 39.7681 -91.0192 44° Northeast 430 495 33,300 -871 Descending Kansas City Center
Fri 06:55:36 PM 39.8608 -90.9292 37° Northeast 445 512 32,500 -968 Descending Kansas City Center
Fri 06:56:38 PM 39.9783 -90.8092 38° Northeast 448 516 31,300 -726 Descending Kansas City Center
Fri 06:57:40 PM 40.0669 -90.6978 44° Northeast 440 506 31,000 -145 Descending Kansas City Center
Fri 06:58:42 PM 40.1508 -90.5797 47° Northeast 440 506 31,000  Level Kansas City Center
Fri 06:59:45 PM 40.2314 -90.4611 48° Northeast 438 504 31,000  Level Kansas City Center
Fri 07:00:53 PM 40.3269 -90.3178 49° Northeast 437 503 31,000  Level Chicago Center
Fri 07:01:55 PM 40.4078 -90.1994 48° Northeast 436 502 31,000 -823 Level Chicago Center
Fri 07:02:57 PM 40.4967 -90.0678 48° Northeast 433 498 29,300 -1,355 Descending Chicago Center
Fri 07:03:59 PM 40.5736 -89.9514 49° Northeast 426 490 28,200 -1,548 Descending Chicago Center
Fri 07:05:01 PM 40.6497 -89.8361 49° Northeast 420 483 26,100 -2,032 Descending Chicago Center
Fri 07:06:03 PM 40.7158 -89.7150 54° Northeast 412 474 24,000 -2,081 Descending Chicago Center
Fri 07:07:05 PM 40.7686 -89.5886 61° Northeast 396 456 21,800 -1,839 Descending Chicago Center
Fri 07:08:07 PM 40.8317 -89.4686 55° Northeast 387 445 20,200 -1,355 Descending Chicago Center
Fri 07:09:09 PM 40.9136 -89.3383 50° Northeast 385 443 19,000 -1,161 Descending Chicago Center
Fri 07:10:11 PM 40.9819 -89.2317 50° Northeast 378 435 17,800 -1,694 Descending Chicago Center
Fri 07:11:13 PM 41.0431 -89.1317 51° Northeast 365 420 15,500 -2,274 Descending Chicago Center
Fri 07:12:15 PM 41.1089 -89.0281 50° Northeast 367 422 13,100 -2,032 Descending Chicago Center
Fri 07:13:17 PM 41.1842 -88.9083 50° Northeast 352 405 11,300 -1,403 Descending Chicago Center
Fri 07:14:19 PM 41.2375 -88.8169 52° Northeast 320 368 10,200 -774 Descending Chicago Center
Fri 07:15:21 PM 41.2897 -88.7336 50° Northeast 297 342 9,700 -871 Descending Chicago Center
Fri 07:16:23 PM 41.3414 -88.6511 50° Northeast 291 335 8,400 -1,210 Descending Chicago Center
Fri 07:17:25 PM 41.3722 -88.5619 65° Northeast 272 313 7,200 -1,065 Descending Chicago Center
Fri 07:18:27 PM 41.3947 -88.4706 72° East 261 300 6,200 -581 Descending Chicago Center
Fri 07:19:29 PM 41.4206 -88.3633 72° East 255 293 6,000 -290 Descending Chicago Center
Fri 07:20:31 PM 41.4414 -88.2761 72° East 249 287 5,600 -677 Descending Chicago Center
Fri 07:21:33 PM 41.4622 -88.1875 73° East 249 287 4,600 -829 Descending Chicago Center
Fri 07:22:34 PM 41.5014 -88.1083 57° Northeast 258 297 3,900 -293 Descending Chicago Center
Fri 07:23:36 PM 41.5544 -88.0422 43° Northeast 258 297 4,000  Climbing Chicago Center
Fri 07:24:38 PM 41.6083 -87.9750 43° Northeast 260 299 3,900 -48 Descending Chicago Center
Fri 07:25:40 PM 41.6550 -87.9164 43° Northeast 246 283 3,900 -458 Level Chicago Center
Fri 07:26:36 PM 41.7000 -87.8667 40° Northeast 196 226 3,000 -931 Descending Chicago TRACON
Fri 07:27:36 PM 41.7333 -87.8167 48° Northeast 157 181 2,100 -789 Descending Chicago TRACON
Fri 07:28:30 PM 41.7500 -87.8000 37° Northeast 123 142 1,500 -667 Descending Chicago TRACON
Fri 07:31:00 PM 41.7833 -87.7500 39° Northeast  Level FlightAware Approximate

Login

Don't have an account? Register now (free) for customized features, flight alerts, and more!